createdAt,value
2019-04-10T00:00:21.015Z,82.6294
2019-04-10T00:01:24.202Z,82.6294
2019-04-10T00:02:27.232Z,82.6294
2019-04-10T00:03:33.683Z,82.7332
2019-04-10T00:04:39.023Z,82.6294
2019-04-10T00:05:42.548Z,82.6294
2019-04-10T00:06:45.855Z,82.6660
2019-04-10T00:07:51.219Z,82.5623
2019-04-10T00:08:54.709Z,82.6660
2019-04-10T00:09:57.363Z,82.7698
2019-04-10T00:11:01.289Z,82.7698
2019-04-10T00:12:03.272Z,82.7698
2019-04-10T00:13:06.661Z,82.8735
2019-04-10T00:14:10.239Z,82.8735
2019-04-10T00:15:16.845Z,82.9102
2019-04-10T00:16:21.025Z,83.1177
2019-04-10T00:17:25.001Z,83.1177
2019-04-10T00:18:28.205Z,83.1177
2019-04-10T00:19:31.204Z,83.0139
2019-04-10T00:20:34.349Z,83.0139
2019-04-10T00:21:37.644Z,83.1177
2019-04-10T00:22:40.287Z,83.1177
2019-04-10T00:23:43.654Z,82.9102
2019-04-10T00:24:46.353Z,82.8064
2019-04-10T00:25:50.839Z,82.5989
2019-04-10T00:26:54.390Z,82.7393
2019-04-10T00:27:57.221Z,82.6355
2019-04-10T00:29:00.285Z,82.6355
2019-04-10T00:30:02.932Z,82.8430
2019-04-10T00:31:07.305Z,82.7393
2019-04-10T00:32:12.229Z,82.3242
2019-04-10T00:33:15.199Z,82.0129
2019-04-10T00:34:18.187Z,81.9092
2019-04-10T00:35:21.477Z,81.9458
2019-04-10T00:36:24.731Z,82.1533
2019-04-10T00:37:30.290Z,82.2571
2019-04-10T00:38:34.197Z,82.2571
2019-04-10T00:39:37.192Z,82.0496
2019-04-10T00:40:40.198Z,81.8420
2019-04-10T00:41:44.215Z,81.9824
2019-04-10T00:42:47.369Z,82.0862
2019-04-10T00:43:51.014Z,82.2998
2019-04-10T00:44:54.292Z,82.1960
2019-04-10T00:45:57.879Z,82.0862
2019-04-10T00:47:02.363Z,81.9824
2019-04-10T00:48:05.794Z,82.0862
2019-04-10T00:49:11.465Z,82.2998
2019-04-10T00:50:14.647Z,82.1960
2019-04-10T00:51:17.294Z,82.1960
2019-04-10T00:52:20.194Z,82.2998
2019-04-10T00:53:23.304Z,82.5073
2019-04-10T00:54:26.182Z,82.6111
2019-04-10T00:55:30.129Z,82.5745
2019-04-10T00:56:33.188Z,82.4646
2019-04-10T00:57:37.150Z,82.4646
2019-04-10T00:58:40.202Z,82.5745
2019-04-10T00:59:44.012Z,82.6782
2019-04-10T01:00:47.633Z,82.6782
2019-04-10T01:01:50.198Z,82.6782
2019-04-10T01:02:53.973Z,82.6782
2019-04-10T01:03:58.038Z,82.4280
2019-04-10T01:05:01.207Z,82.4280
2019-04-10T01:06:04.189Z,82.3242
2019-04-10T01:07:07.183Z,82.2205
2019-04-10T01:08:10.647Z,82.1167
2019-04-10T01:09:13.265Z,82.0129
2019-04-10T01:10:16.213Z,81.9458
2019-04-10T01:11:19.190Z,81.8420
2019-04-10T01:12:22.212Z,81.9458
2019-04-10T01:13:25.203Z,81.9458
2019-04-10T01:14:29.722Z,82.1533
2019-04-10T01:15:32.194Z,82.2571
2019-04-10T01:16:35.615Z,82.1533
2019-04-10T01:17:38.295Z,82.0496
2019-04-10T01:18:41.601Z,82.0496
2019-04-10T01:19:44.164Z,82.0496
2019-04-10T01:20:46.193Z,81.9458
2019-04-10T01:21:49.196Z,81.8787
2019-04-10T01:22:52.180Z,81.8787
2019-04-10T01:23:55.364Z,81.8787
2019-04-10T01:24:58.181Z,81.8787
2019-04-10T01:26:01.190Z,82.0862
2019-04-10T01:27:04.193Z,82.1960
2019-04-10T01:28:07.187Z,82.0862
2019-04-10T01:29:11.288Z,82.1960
2019-04-10T01:30:14.174Z,82.0862
2019-04-10T01:31:17.203Z,82.0862
2019-04-10T01:32:19.495Z,81.9824
2019-04-10T01:33:22.804Z,82.0251
2019-04-10T01:34:25.394Z,82.1289
2019-04-10T01:35:28.201Z,82.0251
2019-04-10T01:36:31.197Z,81.9214
2019-04-10T01:37:47.683Z,81.8115
2019-04-10T01:38:42.187Z,81.7078
2019-04-10T01:39:45.191Z,81.6040
2019-04-10T01:40:48.193Z,81.5002
2019-04-10T01:41:52.192Z,81.6040
2019-04-10T01:43:10.932Z,81.8115
2019-04-10T01:44:03.487Z,81.9214
2019-04-10T01:45:06.193Z,81.8115
2019-04-10T01:46:08.407Z,81.6040
2019-04-10T01:47:10.884Z,81.6467
2019-04-10T01:48:14.195Z,81.6467
2019-04-10T01:49:17.664Z,81.5369
2019-04-10T01:50:20.192Z,81.4331
2019-04-10T01:51:23.421Z,81.4331
2019-04-10T01:52:27.007Z,81.3293
2019-04-10T01:53:30.190Z,81.3293
2019-04-10T01:54:33.348Z,81.5369
2019-04-10T01:55:36.193Z,81.5369
2019-04-10T01:56:39.729Z,81.5369
2019-04-10T01:57:42.189Z,81.5369
2019-04-10T01:58:45.501Z,81.5369
2019-04-10T01:59:48.202Z,81.5369
2019-04-10T02:00:52.093Z,81.4331
2019-04-10T02:01:55.216Z,81.3293
2019-04-10T02:02:58.181Z,81.2256
2019-04-10T02:04:01.192Z,81.1218
2019-04-10T02:05:04.193Z,81.1218
2019-04-10T02:06:07.170Z,80.9143
2019-04-10T02:07:10.185Z,80.8105
2019-04-10T02:08:16.067Z,80.6396
2019-04-10T02:09:21.360Z,80.4321
2019-04-10T02:10:24.168Z,80.3284
2019-04-10T02:11:28.087Z,80.5359
2019-04-10T02:12:31.196Z,80.6396
2019-04-10T02:13:34.194Z,80.8472
2019-04-10T02:14:37.186Z,80.9509
2019-04-10T02:15:40.188Z,80.8472
2019-04-10T02:16:43.281Z,80.7434
2019-04-10T02:17:46.635Z,80.6396
2019-04-10T02:18:49.962Z,80.6763
2019-04-10T02:19:53.188Z,80.7800
2019-04-10T02:20:55.669Z,80.7800
2019-04-10T02:21:58.282Z,80.7800
2019-04-10T02:23:01.692Z,80.7800
2019-04-10T02:24:05.049Z,80.7800
2019-04-10T02:25:08.194Z,80.7800
2019-04-10T02:26:11.555Z,80.8838
2019-04-10T02:27:14.017Z,81.0913
2019-04-10T02:28:17.177Z,81.0547
2019-04-10T02:29:20.184Z,81.0547
2019-04-10T02:30:24.060Z,81.0547
2019-04-10T02:31:28.597Z,81.1584
2019-04-10T02:32:34.448Z,81.1584
2019-04-10T02:33:39.220Z,81.1218
2019-04-10T02:34:43.715Z,81.1218
2019-04-10T02:35:47.722Z,81.1218
2019-04-10T02:36:52.855Z,81.0852
2019-04-10T02:37:58.041Z,81.0852
2019-04-10T02:39:15.249Z,80.8411
2019-04-10T02:40:11.024Z,80.5969
2019-04-10T02:41:14.257Z,80.2856
2019-04-10T02:42:18.445Z,80.0415
2019-04-10T02:43:21.256Z,79.9377
2019-04-10T02:44:26.013Z,79.7974
2019-04-10T02:45:30.353Z,79.7607
2019-04-10T02:46:33.237Z,79.6509
2019-04-10T02:47:37.044Z,79.5105
2019-04-10T02:48:41.549Z,79.5105
2019-04-10T02:49:44.602Z,79.3762
2019-04-10T02:50:47.181Z,79.3762
2019-04-10T02:51:51.766Z,79.2725
2019-04-10T02:52:55.615Z,79.1321
2019-04-10T02:54:00.510Z,79.1321
2019-04-10T02:55:03.814Z,79.0283
2019-04-10T02:56:07.290Z,78.9917
2019-04-10T02:57:11.406Z,78.8879
2019-04-10T02:58:14.370Z,78.7842
2019-04-10T02:59:16.189Z,78.6438
2019-04-10T03:00:20.421Z,78.6438
2019-04-10T03:01:25.270Z,78.5400
2019-04-10T03:02:28.930Z,78.5400
2019-04-10T03:03:34.309Z,78.5034
2019-04-10T03:04:37.355Z,78.3997
2019-04-10T03:05:40.624Z,78.3997
2019-04-10T03:06:42.821Z,78.3630
2019-04-10T03:07:46.450Z,78.3630
2019-04-10T03:09:02.155Z,78.2593
2019-04-10T03:10:12.031Z,78.3630
2019-04-10T03:11:09.327Z,78.2593
2019-04-10T03:12:14.588Z,78.2593
2019-04-10T03:13:19.651Z,78.2227
2019-04-10T03:14:24.309Z,78.3264
2019-04-10T03:15:27.326Z,78.4302
2019-04-10T03:16:32.277Z,78.4302
2019-04-10T03:17:35.187Z,78.5339
2019-04-10T03:18:39.080Z,78.6743
2019-04-10T03:19:42.189Z,78.8818
2019-04-10T03:20:45.193Z,78.9856
2019-04-10T03:21:48.233Z,79.0894
2019-04-10T03:22:51.416Z,79.1931
2019-04-10T03:23:54.202Z,79.2969
2019-04-10T03:24:57.181Z,79.3640
2019-04-10T03:26:01.378Z,79.3640
2019-04-10T03:27:04.206Z,79.4678
2019-04-10T03:28:07.208Z,79.4678
2019-04-10T03:29:10.189Z,79.4678
2019-04-10T03:30:15.114Z,79.4678
2019-04-10T03:31:19.909Z,79.4678
2019-04-10T03:32:23.665Z,79.4678
2019-04-10T03:33:32.377Z,79.4678
2019-04-10T03:34:40.529Z,79.4678
2019-04-10T03:35:45.210Z,79.4678
2019-04-10T03:36:48.206Z,79.4312
2019-04-10T03:37:50.803Z,79.4312
2019-04-10T03:39:00.065Z,79.4312
2019-04-10T03:40:01.213Z,79.4312
2019-04-10T03:41:04.189Z,79.4312
2019-04-10T03:42:07.198Z,79.4312
2019-04-10T03:43:10.187Z,79.2908
2019-04-10T03:44:13.192Z,79.2908
2019-04-10T03:45:16.184Z,79.2908
2019-04-10T03:46:19.470Z,79.2908
2019-04-10T03:47:22.946Z,79.3945
2019-04-10T03:48:27.126Z,79.3945
2019-04-10T03:49:30.190Z,79.3945
2019-04-10T03:50:32.211Z,79.3945
2019-04-10T03:51:35.192Z,79.4922
2019-04-10T03:52:38.180Z,79.4922
2019-04-10T03:53:41.193Z,79.4922
2019-04-10T03:54:46.081Z,79.5959
2019-04-10T03:55:51.121Z,79.5959
2019-04-10T03:56:56.169Z,79.5959
2019-04-10T03:57:59.176Z,79.5959
2019-04-10T03:59:02.287Z,79.6997
2019-04-10T04:00:06.236Z,79.6997
2019-04-10T04:01:09.201Z,79.7668
2019-04-10T04:02:11.616Z,79.7668
2019-04-10T04:03:14.188Z,79.8706
2019-04-10T04:04:17.529Z,79.8706
2019-04-10T04:05:20.402Z,79.9744
2019-04-10T04:06:23.738Z,79.9744
2019-04-10T04:07:27.301Z,80.0781
2019-04-10T04:08:30.203Z,80.1819
2019-04-10T04:09:33.180Z,80.1819
2019-04-10T04:10:37.092Z,80.2856
2019-04-10T04:11:41.981Z,80.3894
2019-04-10T04:12:45.182Z,80.4260
2019-04-10T04:13:50.381Z,80.4932
2019-04-10T04:14:53.190Z,80.5969
2019-04-10T04:15:56.193Z,80.6335
2019-04-10T04:16:59.786Z,80.7007
2019-04-10T04:18:02.518Z,80.7007
2019-04-10T04:19:05.933Z,80.7007
2019-04-10T04:20:09.191Z,80.8044
2019-04-10T04:21:12.191Z,80.8044
2019-04-10T04:22:15.181Z,80.8044
2019-04-10T04:23:19.312Z,80.8044
2019-04-10T04:24:23.563Z,80.8044
2019-04-10T04:25:27.171Z,80.8044
2019-04-10T04:26:30.208Z,80.8044
2019-04-10T04:27:33.581Z,80.8044
2019-04-10T04:28:37.251Z,80.9021
2019-04-10T04:29:41.288Z,81.0059
2019-04-10T04:30:44.194Z,81.0059
2019-04-10T04:31:47.427Z,81.0059
2019-04-10T04:32:51.200Z,80.9692
2019-04-10T04:33:54.199Z,80.9692
2019-04-10T04:34:57.183Z,81.0730
2019-04-10T04:36:00.171Z,81.4880
2019-04-10T04:37:03.182Z,82.0007
2019-04-10T04:38:07.137Z,82.4158
2019-04-10T04:39:21.119Z,82.6233
2019-04-10T04:40:18.189Z,82.8308
2019-04-10T04:41:20.192Z,83.0383
2019-04-10T04:42:22.399Z,83.2458
2019-04-10T04:43:26.002Z,83.3435
2019-04-10T04:44:29.202Z,83.3435
2019-04-10T04:45:32.178Z,83.3435
2019-04-10T04:46:35.184Z,83.2458
2019-04-10T04:47:39.182Z,83.2458
2019-04-10T04:48:45.266Z,83.2458
2019-04-10T04:49:48.198Z,83.2458
2019-04-10T04:50:52.218Z,83.1421
2019-04-10T04:51:54.677Z,83.1421
2019-04-10T04:52:58.181Z,83.0383
2019-04-10T04:54:01.189Z,82.9346
2019-04-10T04:55:04.221Z,82.9346
2019-04-10T04:56:07.433Z,82.8308
2019-04-10T04:57:12.783Z,82.8308
2019-04-10T04:58:15.215Z,82.8308
2019-04-10T04:59:18.410Z,82.7271
2019-04-10T05:00:21.517Z,82.7271
2019-04-10T05:01:24.192Z,82.7271
2019-04-10T05:02:28.092Z,82.6233
2019-04-10T05:03:31.206Z,82.6233
2019-04-10T05:04:34.203Z,82.6233
2019-04-10T05:05:39.180Z,82.6233
2019-04-10T05:06:42.194Z,82.7271
2019-04-10T05:07:54.685Z,82.7271
2019-04-10T05:08:53.165Z,82.7271
2019-04-10T05:09:58.691Z,82.7271
2019-04-10T05:11:02.255Z,82.7271
2019-04-10T05:12:05.191Z,82.7271
2019-04-10T05:13:08.248Z,82.7271
2019-04-10T05:14:11.197Z,82.7271
2019-04-10T05:15:14.179Z,82.7271
2019-04-10T05:16:17.188Z,82.7271
2019-04-10T05:17:20.183Z,82.7271
2019-04-10T05:18:23.254Z,82.7271
2019-04-10T05:19:26.180Z,82.6233
2019-04-10T05:20:39.308Z,82.4829
2019-04-10T05:21:37.339Z,82.4829
2019-04-10T05:22:40.189Z,82.3792
2019-04-10T05:23:43.195Z,82.3792
2019-04-10T05:24:46.721Z,82.3792
2019-04-10T05:25:49.792Z,82.3792
2019-04-10T05:26:52.203Z,82.3792
2019-04-10T05:27:55.370Z,82.4829
2019-04-10T05:28:58.212Z,82.4829
2019-04-10T05:30:02.325Z,82.4829
2019-04-10T05:31:05.181Z,82.3792
2019-04-10T05:32:09.233Z,82.4829
2019-04-10T05:33:12.202Z,82.4829
2019-04-10T05:34:15.728Z,82.4829
2019-04-10T05:35:19.255Z,82.3425
2019-04-10T05:36:22.192Z,82.3425
2019-04-10T05:37:25.183Z,82.2388
2019-04-10T05:38:30.232Z,82.2388
2019-04-10T05:39:40.533Z,82.2388
2019-04-10T05:40:42.138Z,82.1350
2019-04-10T05:41:46.871Z,82.2388
2019-04-10T05:42:50.187Z,82.3425
2019-04-10T05:43:53.176Z,82.4463
2019-04-10T05:44:57.243Z,82.5500
2019-04-10T05:46:01.262Z,82.6477
2019-04-10T05:47:05.288Z,82.8552
2019-04-10T05:48:11.081Z,83.0627
2019-04-10T05:49:14.970Z,83.0627
2019-04-10T05:50:19.262Z,83.0627
2019-04-10T05:51:23.256Z,83.0261
2019-04-10T05:52:26.733Z,83.0261
2019-04-10T05:53:32.373Z,83.0261
2019-04-10T05:54:35.386Z,83.0261
2019-04-10T05:55:38.568Z,83.0261
2019-04-10T05:56:41.194Z,82.9224
2019-04-10T05:57:44.807Z,82.9224
2019-04-10T05:58:47.250Z,82.9224
2019-04-10T05:59:50.225Z,83.0261
2019-04-10T06:00:53.415Z,83.1299
2019-04-10T06:01:56.818Z,83.2336
2019-04-10T06:02:59.190Z,83.3313
2019-04-10T06:04:05.142Z,83.4351
2019-04-10T06:05:10.212Z,83.6426
2019-04-10T06:06:13.191Z,83.7463
2019-04-10T06:07:17.054Z,83.8501
2019-04-10T06:08:20.181Z,83.9539
2019-04-10T06:09:23.189Z,83.9539
2019-04-10T06:10:26.713Z,84.1614
2019-04-10T06:11:29.185Z,84.2224
2019-04-10T06:12:32.199Z,84.2224
2019-04-10T06:13:35.245Z,84.2224
2019-04-10T06:14:38.016Z,84.2224
2019-04-10T06:15:41.354Z,84.2224
2019-04-10T06:16:44.740Z,84.2224
2019-04-10T06:17:49.230Z,84.1187
2019-04-10T06:18:52.209Z,84.1187
2019-04-10T06:19:56.665Z,84.1187
2019-04-10T06:21:01.225Z,84.0820
2019-04-10T06:22:05.221Z,84.0820
2019-04-10T06:23:09.404Z,84.0820
2019-04-10T06:24:12.181Z,84.0820
2019-04-10T06:25:16.077Z,84.1858
2019-04-10T06:26:21.729Z,84.3933
2019-04-10T06:27:26.267Z,84.5947
2019-04-10T06:28:29.663Z,84.6985
2019-04-10T06:29:35.128Z,84.6985
2019-04-10T06:30:38.182Z,84.8022
2019-04-10T06:31:40.966Z,84.9060
2019-04-10T06:32:45.345Z,84.9060
2019-04-10T06:33:47.215Z,84.7656
2019-04-10T06:34:50.273Z,84.7656
2019-04-10T06:35:53.339Z,84.7656
2019-04-10T06:36:56.200Z,84.6619
2019-04-10T06:37:59.915Z,84.5581
2019-04-10T06:39:04.648Z,84.5154
2019-04-10T06:40:18.185Z,84.5154
2019-04-10T06:41:17.612Z,84.5154
2019-04-10T06:42:21.185Z,84.6191
2019-04-10T06:43:25.178Z,84.6191
2019-04-10T06:44:28.173Z,84.7229
2019-04-10T06:45:31.597Z,84.9304
2019-04-10T06:46:35.449Z,84.9304
2019-04-10T06:47:40.413Z,85.1379
2019-04-10T06:48:43.198Z,85.2417
2019-04-10T06:49:46.183Z,85.3394
2019-04-10T06:50:49.232Z,85.6506
2019-04-10T06:51:52.190Z,85.7544
2019-04-10T06:52:55.193Z,85.8582
2019-04-10T06:54:02.831Z,85.9192
2019-04-10T06:55:06.208Z,85.9192
2019-04-10T06:56:09.897Z,85.8154
2019-04-10T06:57:13.183Z,85.8154
2019-04-10T06:58:16.219Z,85.7117
2019-04-10T06:59:19.244Z,85.7117
2019-04-10T07:00:23.006Z,85.6140
2019-04-10T07:01:39.040Z,85.4675
2019-04-10T07:02:35.565Z,85.4675
2019-04-10T07:03:52.766Z,85.3638
2019-04-10T07:04:53.297Z,85.3638
2019-04-10T07:06:06.041Z,85.3638
2019-04-10T07:07:10.559Z,85.3638
2019-04-10T07:08:16.532Z,85.4675
2019-04-10T07:09:21.378Z,85.4675
2019-04-10T07:10:33.532Z,85.3271
2019-04-10T07:11:35.185Z,85.3271
2019-04-10T07:12:38.193Z,85.2234
2019-04-10T07:13:43.001Z,85.2234
2019-04-10T07:14:49.322Z,85.2234
2019-04-10T07:15:56.360Z,85.1196
2019-04-10T07:17:05.395Z,85.1196
2019-04-10T07:18:14.429Z,85.0830
2019-04-10T07:19:17.725Z,85.1807
2019-04-10T07:20:21.383Z,85.2844
2019-04-10T07:21:25.411Z,85.3882
2019-04-10T07:22:28.994Z,85.4919
2019-04-10T07:23:33.568Z,85.5957
2019-04-10T07:24:39.577Z,85.5957
2019-04-10T07:25:46.576Z,85.5957
2019-04-10T07:26:50.795Z,85.5957
2019-04-10T07:27:54.400Z,85.6995
2019-04-10T07:28:58.896Z,85.8032
2019-04-10T07:30:02.231Z,86.0046
2019-04-10T07:31:08.255Z,86.2122
2019-04-10T07:32:13.396Z,86.4197
2019-04-10T07:33:18.074Z,86.5173
2019-04-10T07:34:25.537Z,86.4197
2019-04-10T07:35:33.707Z,86.2732
2019-04-10T07:36:41.618Z,86.1694
2019-04-10T07:37:46.571Z,86.0657
2019-04-10T07:38:49.249Z,86.0657
2019-04-10T07:39:53.012Z,86.0657
2019-04-10T07:40:56.801Z,86.0291
2019-04-10T07:41:59.977Z,86.0291
2019-04-10T07:43:04.142Z,86.1328
2019-04-10T07:44:08.035Z,86.1328
2019-04-10T07:45:11.254Z,86.2366
2019-04-10T07:46:15.180Z,86.1938
2019-04-10T07:47:19.398Z,86.2976
2019-04-10T07:48:22.211Z,86.2976
2019-04-10T07:49:28.525Z,86.4014
2019-04-10T07:50:33.176Z,86.2549
2019-04-10T07:51:36.675Z,86.1511
2019-04-10T07:52:39.259Z,86.0535
2019-04-10T07:53:43.564Z,86.0107
2019-04-10T07:54:46.186Z,85.9070
2019-04-10T07:56:00.358Z,85.9070
2019-04-10T07:56:57.888Z,85.9070
2019-04-10T07:58:02.681Z,86.0107
2019-04-10T07:59:05.198Z,86.0107
2019-04-10T08:00:08.981Z,86.0718
2019-04-10T08:01:12.222Z,86.0718
2019-04-10T08:02:16.154Z,86.0718
2019-04-10T08:03:19.233Z,86.0718
2019-04-10T08:04:22.609Z,86.1755
2019-04-10T08:05:25.227Z,86.1755
2019-04-10T08:06:28.397Z,86.3159
2019-04-10T08:07:34.495Z,86.3159
2019-04-10T08:08:40.402Z,86.3159
2019-04-10T08:09:44.449Z,86.4624
2019-04-10T08:10:48.832Z,86.5662
2019-04-10T08:11:51.298Z,86.8103
2019-04-10T08:12:54.359Z,86.9141
2019-04-10T08:13:59.224Z,86.9141
2019-04-10T08:15:02.873Z,87.0178
2019-04-10T08:16:06.370Z,87.0544
2019-04-10T08:17:10.047Z,87.0544
2019-04-10T08:18:13.175Z,87.1582
2019-04-10T08:19:16.686Z,87.0544
2019-04-10T08:20:19.189Z,87.0544
2019-04-10T08:21:22.172Z,87.0544
2019-04-10T08:22:25.185Z,87.0544
2019-04-10T08:23:28.249Z,87.0544
2019-04-10T08:24:32.241Z,86.8469
2019-04-10T08:25:35.362Z,86.7493
2019-04-10T08:26:38.810Z,86.6028
2019-04-10T08:27:41.782Z,86.4014
2019-04-10T08:28:45.365Z,86.1938
2019-04-10T08:29:48.542Z,86.0901
2019-04-10T08:30:51.199Z,85.8459
2019-04-10T08:31:54.194Z,85.6384
2019-04-10T08:33:01.236Z,85.6384
2019-04-10T08:34:05.179Z,85.5408
2019-04-10T08:35:07.324Z,85.4370
2019-04-10T08:36:10.870Z,85.4370
2019-04-10T08:37:14.482Z,85.4370
2019-04-10T08:38:17.309Z,85.4370
2019-04-10T08:39:31.765Z,85.5408
2019-04-10T08:40:28.194Z,85.7422
2019-04-10T08:41:31.183Z,85.8459
2019-04-10T08:42:35.115Z,85.9497
2019-04-10T08:43:38.183Z,86.1511
2019-04-10T08:44:42.383Z,86.2549
2019-04-10T08:45:50.030Z,86.3586
2019-04-10T08:46:53.186Z,86.3586
2019-04-10T08:47:57.213Z,86.2549
2019-04-10T08:49:00.278Z,86.3586
2019-04-10T08:50:03.592Z,86.4624
2019-04-10T08:51:06.605Z,86.4624
2019-04-10T08:52:10.328Z,86.4624
2019-04-10T08:53:13.865Z,86.4624
2019-04-10T08:54:18.344Z,86.4624
2019-04-10T08:55:21.905Z,86.4624
2019-04-10T08:56:25.210Z,86.4624
2019-04-10T08:57:29.776Z,86.2183
2019-04-10T08:58:32.789Z,86.1145
2019-04-10T08:59:36.832Z,86.0107
2019-04-10T09:00:40.708Z,86.1511
2019-04-10T09:01:43.193Z,86.1511
2019-04-10T09:02:46.446Z,86.2549
2019-04-10T09:03:49.196Z,86.3586
2019-04-10T09:04:51.199Z,86.4624
2019-04-10T09:05:55.173Z,86.4624
2019-04-10T09:07:00.960Z,86.4624
2019-04-10T09:08:05.215Z,86.4624
2019-04-10T09:09:09.745Z,86.4624
2019-04-10T09:10:14.288Z,86.3586
2019-04-10T09:11:25.474Z,86.3586
2019-04-10T09:12:26.066Z,86.2183
2019-04-10T09:13:29.174Z,86.1145
2019-04-10T09:14:32.973Z,85.8704
2019-04-10T09:15:36.213Z,85.9741
2019-04-10T09:16:39.208Z,85.7239
2019-04-10T09:17:44.230Z,85.2173
2019-04-10T09:18:47.609Z,84.9670
2019-04-10T09:19:50.184Z,84.6619
2019-04-10T09:20:53.194Z,84.5581
2019-04-10T09:21:56.195Z,84.3140
2019-04-10T09:23:17.779Z,84.2163
2019-04-10T09:24:08.196Z,84.2163
2019-04-10T09:25:11.252Z,83.9050
2019-04-10T09:26:15.439Z,83.7036
2019-04-10T09:27:19.177Z,83.5999
2019-04-10T09:28:22.353Z,83.4961
2019-04-10T09:29:25.791Z,83.4595
2019-04-10T09:30:28.951Z,83.5632
2019-04-10T09:31:32.194Z,83.0505
2019-04-10T09:32:37.208Z,82.5378
2019-04-10T09:33:40.198Z,82.2937
2019-04-10T09:34:45.606Z,82.0923
2019-04-10T09:35:49.179Z,82.0923
2019-04-10T09:36:52.193Z,81.9885
2019-04-10T09:37:55.190Z,81.8481
2019-04-10T09:38:59.093Z,81.6467
2019-04-10T09:40:02.193Z,81.4392
2019-04-10T09:41:05.697Z,81.1951
2019-04-10T09:42:08.687Z,81.0974
2019-04-10T09:43:11.393Z,80.9937
2019-04-10T09:44:14.401Z,80.5481
2019-04-10T09:45:17.778Z,80.3406
2019-04-10T09:46:20.428Z,80.3406
2019-04-10T09:47:23.190Z,80.2429
2019-04-10T09:48:26.442Z,80.1392
2019-04-10T09:49:37.758Z,80.0354
2019-04-10T09:50:37.189Z,79.7974
2019-04-10T09:51:40.444Z,79.6936
2019-04-10T09:52:44.030Z,79.5898
2019-04-10T09:53:47.195Z,79.4861
2019-04-10T09:54:51.018Z,79.2847
2019-04-10T09:55:53.200Z,79.1809
2019-04-10T09:56:57.122Z,79.1809
2019-04-10T09:58:00.266Z,79.3213
2019-04-10T09:59:03.255Z,79.4250
2019-04-10T10:00:07.322Z,79.5227
2019-04-10T10:01:10.743Z,79.3884
2019-04-10T10:02:16.232Z,79.3884
2019-04-10T10:03:19.473Z,79.2847
2019-04-10T10:04:21.595Z,78.9795
2019-04-10T10:05:24.396Z,78.9795
2019-04-10T10:06:31.955Z,78.8757
2019-04-10T10:07:35.176Z,78.7720
2019-04-10T10:08:39.453Z,78.6743
2019-04-10T10:09:43.148Z,78.5339
2019-04-10T10:10:47.142Z,78.2288
2019-04-10T10:11:51.291Z,78.0212
2019-04-10T10:12:54.183Z,78.0212
2019-04-10T10:13:57.168Z,78.0212
2019-04-10T10:15:00.481Z,77.8198
2019-04-10T10:16:02.896Z,77.8198
2019-04-10T10:17:06.545Z,77.7161
2019-04-10T10:18:09.191Z,77.6794
2019-04-10T10:19:12.186Z,77.5818
2019-04-10T10:20:15.488Z,77.4780
2019-04-10T10:21:19.063Z,77.3743
2019-04-10T10:22:21.255Z,77.3743
2019-04-10T10:23:24.211Z,77.2705
2019-04-10T10:24:28.881Z,77.2400
2019-04-10T10:25:32.250Z,77.0325
2019-04-10T10:26:36.368Z,77.0325
2019-04-10T10:27:39.590Z,76.8982
2019-04-10T10:28:43.182Z,76.8982
2019-04-10T10:29:46.203Z,76.7944
2019-04-10T10:30:51.540Z,76.6907
2019-04-10T10:31:55.066Z,76.6541
2019-04-10T10:32:59.333Z,76.6541
2019-04-10T10:34:02.198Z,76.6541
2019-04-10T10:35:05.221Z,76.7578
2019-04-10T10:36:08.187Z,76.8616
2019-04-10T10:37:12.419Z,76.9592
2019-04-10T10:38:15.192Z,77.3010
2019-04-10T10:39:19.009Z,77.4048
2019-04-10T10:40:22.187Z,77.6062
2019-04-10T10:41:26.339Z,77.7100
2019-04-10T10:42:29.803Z,77.8137
2019-04-10T10:43:32.268Z,77.8137
2019-04-10T10:44:36.199Z,77.8137
2019-04-10T10:45:47.110Z,77.7100
2019-04-10T10:46:50.200Z,77.5085
2019-04-10T10:47:53.421Z,77.3010
2019-04-10T10:48:56.206Z,77.2034
2019-04-10T10:49:59.191Z,77.2034
2019-04-10T10:51:02.367Z,77.0630
2019-04-10T10:52:05.227Z,76.8616
2019-04-10T10:53:08.187Z,76.6541
2019-04-10T10:54:11.206Z,76.4160
2019-04-10T10:55:14.169Z,76.3123
2019-04-10T10:56:17.931Z,76.1780
2019-04-10T10:57:21.207Z,75.9766
2019-04-10T10:58:24.225Z,75.6348
2019-04-10T10:59:27.346Z,75.3296
2019-04-10T11:00:31.437Z,74.9878
2019-04-10T11:01:34.238Z,74.7864
2019-04-10T11:02:36.193Z,74.5483
2019-04-10T11:03:40.395Z,74.3408
2019-04-10T11:04:43.419Z,73.9380
2019-04-10T11:05:46.510Z,73.5962
2019-04-10T11:06:56.040Z,73.4985
2019-04-10T11:07:57.377Z,73.2605
2019-04-10T11:09:00.217Z,73.0591
2019-04-10T11:10:04.180Z,72.7173
2019-04-10T11:11:08.629Z,72.5159
2019-04-10T11:12:12.170Z,72.2778
2019-04-10T11:13:15.183Z,72.2778
2019-04-10T11:14:19.155Z,72.3816
2019-04-10T11:15:22.213Z,71.4661
2019-04-10T11:16:25.184Z,70.9595
2019-04-10T11:17:29.444Z,71.2952
2019-04-10T11:18:32.739Z,71.5027
2019-04-10T11:19:35.569Z,71.3989
2019-04-10T11:20:38.199Z,71.5027
2019-04-10T11:21:41.202Z,71.6003
2019-04-10T11:22:44.932Z,71.6003
2019-04-10T11:23:49.500Z,71.5027
2019-04-10T11:24:52.299Z,71.2646
2019-04-10T11:25:55.943Z,70.9595
2019-04-10T11:27:00.254Z,70.2515
2019-04-10T11:28:04.025Z,70.2515
2019-04-10T11:29:08.006Z,70.2515
2019-04-10T11:30:12.665Z,70.3491
2019-04-10T11:31:17.334Z,70.6543
2019-04-10T11:32:20.191Z,70.8557
2019-04-10T11:33:24.900Z,70.8557
2019-04-10T11:34:29.098Z,70.9961
2019-04-10T11:35:32.208Z,70.8923
2019-04-10T11:36:36.209Z,71.2280
2019-04-10T11:37:44.441Z,71.2280
2019-04-10T11:38:46.580Z,71.6675
2019-04-10T11:39:50.804Z,72.1741
2019-04-10T11:40:57.271Z,72.5159
2019-04-10T11:42:01.850Z,72.7173
2019-04-10T11:43:05.394Z,72.8210
2019-04-10T11:44:09.914Z,72.8210
2019-04-10T11:45:19.074Z,72.7844
2019-04-10T11:46:22.711Z,72.4792
2019-04-10T11:47:26.680Z,72.5159
2019-04-10T11:48:29.337Z,72.5159
2019-04-10T11:49:33.992Z,72.5159
2019-04-10T11:50:39.217Z,72.7173
2019-04-10T11:51:45.276Z,72.6196
2019-04-10T11:52:53.152Z,72.4121
2019-04-10T11:53:59.085Z,71.6370
2019-04-10T11:55:10.565Z,71.5698
2019-04-10T11:56:11.554Z,71.3623
2019-04-10T11:57:16.753Z,71.8018
2019-04-10T11:58:24.371Z,71.9055
2019-04-10T11:59:28.830Z,72.0093
2019-04-10T12:00:44.802Z,72.0093
2019-04-10T12:01:43.949Z,71.7041
2019-04-10T12:02:52.690Z,71.3989
2019-04-10T12:03:58.024Z,70.9900
2019-04-10T12:06:13.654Z,70.5811
2019-04-10T12:08:51.685Z,69.6655
2019-04-10T12:11:50.489Z,69.5679
2019-04-10T12:12:54.215Z,69.7693
2019-04-10T12:13:57.200Z,69.7388
2019-04-10T12:15:00.198Z,69.8364
2019-04-10T12:16:03.195Z,69.8364
2019-04-10T12:17:06.453Z,69.8059
2019-04-10T12:18:09.199Z,69.6045
2019-04-10T12:19:13.118Z,69.6045
2019-04-10T12:20:16.719Z,69.7021
2019-04-10T12:21:19.832Z,69.8059
2019-04-10T12:22:23.336Z,70.0073
2019-04-10T12:23:25.188Z,70.1111
2019-04-10T12:24:28.186Z,70.1111
2019-04-10T12:25:31.260Z,70.0439
2019-04-10T12:26:34.216Z,70.2454
2019-04-10T12:27:37.197Z,70.5505
2019-04-10T12:28:40.324Z,70.7520
2019-04-10T12:29:43.186Z,70.8557
2019-04-10T12:30:46.196Z,70.8557
2019-04-10T12:31:50.224Z,70.9595
2019-04-10T12:32:53.187Z,70.8557
2019-04-10T12:33:56.971Z,70.8557
2019-04-10T12:35:00.384Z,70.7520
2019-04-10T12:36:04.481Z,70.8557
2019-04-10T12:37:07.223Z,70.8557
2019-04-10T12:38:11.765Z,70.8557
2019-04-10T12:39:16.263Z,71.0571
2019-04-10T12:40:19.519Z,71.2646
2019-04-10T12:41:22.234Z,71.3623
2019-04-10T12:42:25.202Z,71.4661
2019-04-10T12:43:29.201Z,71.8018
2019-04-10T12:44:32.302Z,71.9055
2019-04-10T12:45:36.042Z,72.1069
2019-04-10T12:46:39.484Z,72.2107
2019-04-10T12:47:42.214Z,72.3450
2019-04-10T12:48:45.283Z,72.3450
2019-04-10T12:49:49.903Z,72.0764
2019-04-10T12:50:55.146Z,72.3145
2019-04-10T12:51:58.379Z,72.7173
2019-04-10T12:53:01.224Z,72.9553
2019-04-10T12:54:04.630Z,73.4985
2019-04-10T12:55:08.133Z,73.8098
2019-04-10T12:56:11.232Z,73.9075